createdAt,value
2022-10-28T08:37:43.420Z,13.10
2022-10-28T08:39:46.023Z,13.82
2022-10-28T08:41:58.647Z,13.07
2022-10-28T08:44:20.893Z,11.57
2022-10-28T08:46:49.744Z,14.20
2022-10-28T08:48:51.979Z,16.67
2022-10-28T08:51:00.766Z,13.20
2022-10-28T08:53:27.059Z,11.20
2022-10-28T08:55:35.124Z,10.00
2022-10-28T08:57:51.086Z,10.10
2022-10-28T08:59:54.072Z,10.93
2022-10-28T09:02:22.075Z,11.15
2022-10-28T09:04:44.114Z,10.80
2022-10-28T09:06:46.587Z,12.25
2022-10-28T09:08:50.083Z,10.25
2022-10-28T09:11:06.938Z,10.73
2022-10-28T09:13:17.848Z,11.80
2022-10-28T09:15:47.595Z,13.10
2022-10-28T09:18:43.986Z,10.70
2022-10-28T09:20:54.050Z,11.52
2022-10-28T09:22:58.726Z,11.63
2022-10-28T09:25:17.701Z,12.27
2022-10-28T09:27:49.868Z,9.52
2022-10-28T09:30:07.547Z,10.18
2022-10-28T09:32:36.754Z,10.75
2022-10-28T09:34:51.186Z,10.55
2022-10-28T09:36:58.582Z,11.77
2022-10-28T09:39:03.488Z,10.20
2022-10-28T09:41:16.257Z,10.43
2022-10-28T09:43:48.870Z,10.85
2022-10-28T09:45:53.686Z,10.82
2022-10-28T09:48:14.528Z,17.08
2022-10-28T09:50:20.935Z,10.57
2022-10-28T09:52:28.532Z,15.57
2022-10-28T09:54:35.960Z,10.15
2022-10-28T09:56:39.194Z,10.32
2022-10-28T09:58:46.746Z,10.85
2022-10-28T10:00:49.692Z,12.00
2022-10-28T10:02:57.683Z,12.63
2022-10-28T10:05:02.698Z,10.57
2022-10-28T10:07:12.281Z,11.60
2022-10-28T10:09:21.717Z,11.57
2022-10-28T10:11:44.964Z,11.05
2022-10-28T10:13:47.673Z,10.75
2022-10-28T10:15:57.083Z,11.40
2022-10-28T10:18:02.292Z,10.43
2022-10-28T10:20:13.391Z,11.80
2022-10-28T10:22:34.058Z,11.57
2022-10-28T10:24:36.336Z,11.48
2022-10-28T10:26:38.559Z,10.80
2022-10-28T10:28:46.689Z,12.32
2022-10-28T10:30:54.750Z,12.00
2022-10-28T10:32:57.964Z,11.38
2022-10-28T10:35:23.075Z,10.50
2022-10-28T10:37:25.467Z,11.90
2022-10-28T10:39:35.392Z,13.98
2022-10-28T10:41:41.809Z,11.70
2022-10-28T10:43:44.018Z,11.98
2022-10-28T10:46:00.825Z,12.85
2022-10-28T10:48:12.110Z,12.85
2022-10-28T10:52:30.516Z,13.60
2022-10-28T10:54:36.090Z,12.43
2022-10-28T10:56:38.507Z,12.80
2022-10-28T10:58:49.816Z,12.25
2022-10-28T11:00:56.217Z,12.37
2022-10-28T11:02:59.903Z,11.65
2022-10-28T11:05:06.190Z,10.88
2022-10-28T11:07:15.722Z,11.68
2022-10-28T11:09:23.327Z,12.52
2022-10-28T11:11:39.935Z,11.75
2022-10-28T11:13:45.963Z,12.60
2022-10-28T11:16:00.776Z,12.07
2022-10-28T11:18:17.049Z,11.68
2022-10-28T11:20:53.598Z,11.52
2022-10-28T11:23:01.912Z,11.77
2022-10-28T11:25:44.093Z,12.23
2022-10-28T11:28:23.423Z,11.27
2022-10-28T11:31:10.334Z,12.52
2022-10-28T11:33:35.161Z,10.80
2022-10-28T11:35:40.650Z,12.13
2022-10-28T11:38:11.061Z,11.65
2022-10-28T11:40:27.604Z,12.10
2022-10-28T11:42:38.802Z,11.80
2022-10-28T11:44:59.647Z,12.10
2022-10-28T11:50:01.802Z,11.73
2022-10-28T11:56:39.570Z,11.65
2022-10-28T11:58:53.461Z,11.60
2022-10-28T12:01:14.652Z,11.12
2022-10-28T12:03:32.406Z,11.73
2022-10-28T12:05:59.238Z,11.05
2022-10-28T12:08:09.831Z,12.20
2022-10-28T12:10:21.710Z,12.18
2022-10-28T12:12:37.264Z,12.80
2022-10-28T12:14:47.582Z,11.43
2022-10-28T12:17:21.442Z,12.57
2022-10-28T12:19:38.462Z,11.07
2022-10-28T12:21:46.173Z,12.48
2022-10-28T12:23:49.575Z,13.30
2022-10-28T12:25:57.334Z,13.05
2022-10-28T12:28:04.557Z,13.57
2022-10-28T12:30:13.244Z,14.23
2022-10-28T12:32:22.691Z,17.27
2022-10-28T12:34:34.030Z,13.40
2022-10-28T12:36:45.769Z,16.23
2022-10-28T12:39:06.650Z,13.65
2022-10-28T12:41:11.627Z,13.43
2022-10-28T12:43:24.225Z,12.13
2022-10-28T12:45:28.689Z,14.07
2022-10-28T12:47:43.384Z,12.77
2022-10-28T12:50:08.079Z,13.55
2022-10-28T12:52:22.201Z,14.13
2022-10-28T12:54:53.542Z,13.90
2022-10-28T12:57:20.046Z,14.68
2022-10-28T12:59:35.312Z,13.43
2022-10-28T13:01:38.096Z,15.55
2022-10-28T13:03:41.128Z,13.35
2022-10-28T13:06:09.180Z,13.27
2022-10-28T13:08:39.107Z,13.43
2022-10-28T13:10:52.605Z,13.60
2022-10-28T13:13:15.068Z,12.93
2022-10-28T13:15:25.834Z,14.13
2022-10-28T13:19:36.227Z,13.45
2022-10-28T13:22:02.767Z,12.88
2022-10-28T13:24:16.515Z,21.65
2022-10-28T13:26:32.751Z,13.73
2022-10-28T13:28:42.203Z,12.93
2022-10-28T13:31:05.993Z,15.20
2022-10-28T13:33:16.485Z,14.77
2022-10-28T13:35:25.392Z,14.20
2022-10-28T13:37:36.668Z,12.90
2022-10-28T13:41:47.893Z,13.07
2022-10-28T13:43:58.355Z,12.63
2022-10-28T13:46:00.576Z,12.18
2022-10-28T13:48:40.630Z,12.52
2022-10-28T13:50:43.067Z,13.65
2022-10-28T13:55:27.272Z,14.25
2022-10-28T13:57:36.765Z,13.32
2022-10-28T13:59:49.924Z,14.87
2022-10-28T14:02:07.818Z,12.68
2022-10-28T14:04:26.399Z,13.77
2022-10-28T14:06:32.955Z,13.05
2022-10-28T14:08:40.163Z,15.75
2022-10-28T14:11:03.908Z,15.07
2022-10-28T14:13:21.326Z,14.13
2022-10-28T14:15:27.002Z,22.02
2022-10-28T14:17:39.682Z,13.90
2022-10-28T14:19:49.557Z,13.77
2022-10-28T14:22:02.140Z,12.98
2022-10-28T14:24:29.464Z,14.43
2022-10-28T14:26:31.713Z,13.80
2022-10-28T14:28:33.861Z,17.30
2022-10-28T14:30:37.381Z,15.20
2022-10-28T14:32:44.846Z,14.68
2022-10-28T14:34:48.169Z,17.02
2022-10-28T14:37:12.586Z,14.80
2022-10-28T14:39:35.561Z,15.93
2022-10-28T14:42:01.077Z,15.63
2022-10-28T14:44:23.032Z,16.40
2022-10-28T14:46:50.368Z,15.05
2022-10-28T14:48:55.406Z,15.25
2022-10-28T14:51:00.260Z,14.18
2022-10-28T14:53:07.645Z,14.30
2022-10-28T14:55:22.517Z,15.35
2022-10-28T14:57:34.046Z,16.00
2022-10-28T14:59:40.044Z,15.23
2022-10-28T15:02:31.422Z,15.40
2022-10-28T15:04:34.180Z,15.05
2022-10-28T15:06:40.758Z,15.20
2022-10-28T15:08:43.145Z,17.90
2022-10-28T15:10:49.327Z,17.00
2022-10-28T15:12:54.537Z,15.48
2022-10-28T15:14:57.403Z,14.85
2022-10-28T15:17:09.241Z,14.80
2022-10-28T15:19:17.025Z,16.33
2022-10-28T15:21:21.765Z,15.60
2022-10-28T15:23:24.314Z,14.60
2022-10-28T15:25:27.574Z,15.73
2022-10-28T15:27:32.219Z,14.68
2022-10-28T15:29:35.043Z,13.02
2022-10-28T15:32:26.571Z,13.43
2022-10-28T15:34:29.538Z,15.00
2022-10-28T15:36:32.104Z,15.93
2022-10-28T15:38:39.336Z,14.52
2022-10-28T15:40:41.588Z,13.82
2022-10-28T15:43:02.509Z,12.50
2022-10-28T15:45:05.908Z,15.35
2022-10-28T15:47:33.401Z,12.52
2022-10-28T15:49:40.653Z,14.87
2022-10-28T15:51:42.865Z,14.82
2022-10-28T15:53:46.714Z,13.85
2022-10-28T15:56:20.713Z,14.38
2022-10-28T15:58:33.269Z,14.57
2022-10-28T16:00:50.212Z,15.18
2022-10-28T16:02:57.146Z,13.18
2022-10-28T16:04:59.624Z,13.05
2022-10-28T16:07:08.309Z,14.23
2022-10-28T16:09:18.948Z,19.98
2022-10-28T16:11:21.206Z,16.02
2022-10-28T16:13:35.098Z,14.98
2022-10-28T16:15:48.310Z,13.32
2022-10-28T16:17:50.495Z,14.45
2022-10-28T16:19:52.683Z,15.52
2022-10-28T16:21:56.021Z,15.38
2022-10-28T16:23:59.163Z,14.80
2022-10-28T16:26:01.355Z,14.32
2022-10-28T16:28:05.731Z,14.90
2022-10-28T16:30:08.639Z,14.85
2022-10-28T16:32:12.814Z,15.73
2022-10-28T16:34:15.356Z,15.05
2022-10-28T16:36:17.605Z,15.82
2022-10-28T16:38:20.049Z,16.42
2022-10-28T16:40:50.974Z,22.67
2022-10-28T16:42:46.588Z,16.75
2022-10-28T16:44:49.390Z,16.10
2022-10-28T16:46:51.996Z,15.73
2022-10-28T16:48:54.550Z,17.23
2022-10-28T16:51:00.521Z,16.60
2022-10-28T16:53:03.003Z,14.35
2022-10-28T16:55:13.315Z,15.65
2022-10-28T16:57:16.567Z,15.30
2022-10-28T16:59:19.395Z,14.57
2022-10-28T17:01:22.839Z,15.27
2022-10-28T17:03:25.248Z,14.48
2022-10-28T17:05:28.435Z,16.27
2022-10-28T17:07:31.344Z,16.08
2022-10-28T17:09:33.595Z,18.45
2022-10-28T17:11:36.067Z,27.85
2022-10-28T17:13:38.311Z,19.23
2022-10-28T17:15:41.955Z,20.33
2022-10-28T17:17:45.010Z,14.15
2022-10-28T17:19:47.328Z,16.00
2022-10-28T17:21:49.538Z,14.35
2022-10-28T17:23:52.043Z,14.40
2022-10-28T17:25:59.467Z,16.73
2022-10-28T17:28:04.747Z,14.75
2022-10-28T17:30:08.268Z,16.08
2022-10-28T17:32:10.924Z,15.63
2022-10-28T17:34:13.731Z,16.58
2022-10-28T17:36:16.605Z,15.95
2022-10-28T17:38:19.208Z,15.52
2022-10-28T17:40:22.222Z,16.73
2022-10-28T17:42:24.884Z,15.45
2022-10-28T17:44:27.219Z,15.60
2022-10-28T17:46:29.870Z,16.48
2022-10-28T17:48:32.760Z,17.87
2022-10-28T17:50:34.994Z,17.50
2022-10-28T17:52:38.601Z,16.15
2022-10-28T17:54:41.405Z,17.45
2022-10-28T17:56:43.732Z,18.52
2022-10-28T17:58:46.140Z,18.55
2022-10-28T18:00:48.609Z,16.15
2022-10-28T18:02:55.949Z,15.50
2022-10-28T18:04:58.324Z,16.67
2022-10-28T18:07:00.596Z,14.82
2022-10-28T18:09:03.909Z,15.80
2022-10-28T18:11:07.786Z,17.60
2022-10-28T18:13:10.270Z,17.00
2022-10-28T18:15:13.137Z,15.38
2022-10-28T18:17:17.315Z,16.15
2022-10-28T18:19:20.102Z,15.93
2022-10-28T18:21:24.417Z,15.85
2022-10-28T18:23:27.233Z,14.98
2022-10-28T18:25:30.016Z,15.68
2022-10-28T18:27:33.131Z,16.80
2022-10-28T18:29:36.309Z,19.20
2022-10-28T18:31:40.982Z,16.55
2022-10-28T18:33:44.930Z,14.68
2022-10-28T18:35:48.073Z,15.60
2022-10-28T18:37:50.735Z,15.70
2022-10-28T18:39:53.459Z,16.05
2022-10-28T18:41:56.081Z,16.12
2022-10-28T18:44:00.595Z,17.27
2022-10-28T18:46:03.375Z,16.33
2022-10-28T18:48:06.827Z,15.30
2022-10-28T18:50:09.393Z,15.65
2022-10-28T18:52:12.135Z,14.85
2022-10-28T18:54:15.109Z,14.98
2022-10-28T18:56:23.648Z,14.25
2022-10-28T18:58:27.362Z,14.60
2022-10-28T19:00:29.919Z,16.00
2022-10-28T19:02:32.344Z,15.18
2022-10-28T19:04:35.011Z,15.90
2022-10-28T19:06:40.276Z,16.30
2022-10-28T19:08:44.177Z,15.38
2022-10-28T19:10:48.617Z,15.93
2022-10-28T19:12:53.169Z,16.45
2022-10-28T19:14:55.730Z,16.48
2022-10-28T19:16:58.712Z,17.25
2022-10-28T19:19:05.589Z,18.45
2022-10-28T19:21:11.990Z,16.62
2022-10-28T19:23:14.866Z,16.65
2022-10-28T19:25:17.297Z,17.08
2022-10-28T19:27:19.632Z,16.00
2022-10-28T19:29:22.107Z,17.50
2022-10-28T19:31:26.406Z,17.30
2022-10-28T19:33:31.184Z,18.33
2022-10-28T19:35:34.491Z,17.48
2022-10-28T19:37:36.818Z,16.37
2022-10-28T19:39:39.132Z,16.65
2022-10-28T19:41:41.778Z,18.10
2022-10-28T19:43:45.005Z,17.20
2022-10-28T19:45:47.297Z,16.25
2022-10-28T19:47:50.668Z,17.90
2022-10-28T19:49:54.388Z,18.42
2022-10-28T19:51:56.718Z,18.05
2022-10-28T19:54:01.282Z,16.77
2022-10-28T19:56:04.354Z,17.37
2022-10-28T19:58:07.094Z,15.82
2022-10-28T20:00:10.394Z,19.23
2022-10-28T20:02:13.910Z,18.12
2022-10-28T20:04:17.509Z,17.52
2022-10-28T20:06:22.042Z,18.27
2022-10-28T20:08:24.325Z,17.37
2022-10-28T20:10:26.985Z,18.20
2022-10-28T20:12:29.448Z,19.42
2022-10-28T20:14:32.638Z,17.17
2022-10-28T20:16:36.349Z,17.83
2022-10-28T20:18:39.498Z,18.00
2022-10-28T20:20:41.769Z,17.25
2022-10-28T20:22:44.622Z,17.70
2022-10-28T20:24:46.927Z,16.60
2022-10-28T20:26:49.189Z,17.67
2022-10-28T20:28:51.750Z,17.83
2022-10-28T20:31:01.638Z,16.50
2022-10-28T20:33:04.168Z,18.48
2022-10-28T20:35:07.115Z,20.62
2022-10-28T20:37:09.364Z,18.70
2022-10-28T20:39:16.887Z,18.20
2022-10-28T20:41:19.731Z,19.15
2022-10-28T20:43:23.886Z,19.87
2022-10-28T20:45:26.067Z,19.23
2022-10-28T20:47:28.626Z,19.65
2022-10-28T20:49:30.867Z,18.42
2022-10-28T20:51:33.511Z,19.30
2022-10-28T20:53:36.634Z,19.15
2022-10-28T20:55:45.257Z,19.50
2022-10-28T20:57:47.436Z,19.60
2022-10-28T20:59:51.651Z,18.90
2022-10-28T21:01:53.924Z,20.55
2022-10-28T21:03:58.527Z,19.20
2022-10-28T21:06:04.160Z,20.27
2022-10-28T21:08:06.703Z,21.20
2022-10-28T21:10:09.774Z,18.92
2022-10-28T21:12:12.399Z,19.62
2022-10-28T21:14:14.960Z,19.83
2022-10-28T21:16:17.598Z,18.52
2022-10-28T21:18:20.071Z,19.08
2022-10-28T21:20:22.546Z,20.23
2022-10-28T21:22:24.789Z,19.90
2022-10-28T21:24:27.272Z,19.30
2022-10-28T21:26:29.462Z,19.67
2022-10-28T21:28:33.110Z,20.98
2022-10-28T21:30:35.518Z,19.92
2022-10-28T21:32:37.809Z,19.52
2022-10-28T21:34:40.152Z,19.35
2022-10-28T21:36:42.674Z,20.02
2022-10-28T21:38:45.472Z,18.67
2022-10-28T21:40:47.722Z,21.90
2022-10-28T21:42:50.453Z,19.55
2022-10-28T21:44:52.993Z,19.95
2022-10-28T21:46:55.430Z,19.35
2022-10-28T21:48:58.180Z,19.27
2022-10-28T21:51:02.446Z,20.12
2022-10-28T21:53:04.632Z,20.50
2022-10-28T21:55:20.052Z,19.55
2022-10-28T21:57:30.207Z,18.65
2022-10-28T21:59:33.311Z,18.58
2022-10-28T22:01:37.081Z,18.70
2022-10-28T22:03:39.628Z,18.42
2022-10-28T22:05:49.956Z,18.77
2022-10-28T22:07:52.208Z,19.48
2022-10-28T22:09:54.700Z,19.58
2022-10-28T22:11:56.919Z,19.45
2022-10-28T22:14:01.659Z,19.83
2022-10-28T22:16:10.893Z,20.12
2022-10-28T22:18:13.061Z,20.60
2022-10-28T22:20:15.745Z,20.67
2022-10-28T22:22:18.274Z,20.35
2022-10-28T22:24:20.456Z,19.92
2022-10-28T22:26:28.613Z,22.67
2022-10-28T22:28:31.646Z,20.88
2022-10-28T22:30:33.829Z,22.17
2022-10-28T22:32:36.026Z,23.52
2022-10-28T22:34:38.493Z,20.98
2022-10-28T22:36:43.222Z,22.95
2022-10-28T22:38:46.235Z,23.02
2022-10-28T22:40:48.963Z,22.17
2022-10-28T22:42:51.163Z,22.23
2022-10-28T22:44:53.334Z,20.05
2022-10-28T22:46:55.925Z,21.40
2022-10-28T22:48:58.192Z,22.00
2022-10-28T22:51:00.710Z,24.58
